Koslan, Russia
Current Conditions -  °F | °C
As of 8:00 AM on Thursday 23 Oct 2014 (Local Time) from UUYY Reporting Station
Heavy Snow Heavy Snow  
Wind Chill:   Ceiling: 300
Heat Index: 16°   Visibility: 0.21mi
Dew Point: 14°   Wind: 16mph
Humidity: 93%   Direction: 10°N
Pressure: 29.88"   Gusts: 22mph
Location:  63.45°N, 48.9°E
Report Text: UUYY 230500Z 01007G10MPS 0350 R01/0375N +SN VV003 M09/M10 Q1012 NOSIG 0149//41 RMK QBB110 QFE750/1000
Loading
Personal Weather Stations






























Interactive Weather Map
Tropical Storm Tracking
New forecast layout! Learn more

10-Day Weather Forecast

Advertisements
Track Severe Weather on mobile